createdAt,value
2023-11-09T00:01:48.761Z,3.28
2023-11-09T00:04:15.391Z,3.45
2023-11-09T00:06:42.000Z,3.17
2023-11-09T00:09:08.601Z,3.50
2023-11-09T00:11:35.941Z,3.10
2023-11-09T00:14:06.219Z,4.38
2023-11-09T00:16:32.935Z,4.47
2023-11-09T00:19:01.315Z,2.42
2023-11-09T00:21:28.035Z,2.30
2023-11-09T00:23:55.082Z,3.30
2023-11-09T00:26:21.730Z,4.38
2023-11-09T00:28:52.030Z,1.65
2023-11-09T00:31:20.928Z,3.25
2023-11-09T00:33:47.734Z,2.75
2023-11-09T00:36:14.460Z,1.42
2023-11-09T00:38:41.073Z,2.83
2023-11-09T00:41:07.691Z,2.47
2023-11-09T00:43:34.362Z,2.80
2023-11-09T00:46:02.860Z,3.33
2023-11-09T00:48:29.618Z,2.28
2023-11-09T00:50:56.268Z,2.17
2023-11-09T00:53:22.988Z,2.67
2023-11-09T00:55:49.662Z,2.47
2023-11-09T00:58:17.436Z,1.42
2023-11-09T01:00:44.114Z,2.05
2023-11-09T01:03:10.799Z,1.30
2023-11-09T01:05:37.518Z,1.48
2023-11-09T01:08:04.287Z,4.03
2023-11-09T01:10:30.895Z,2.72
2023-11-09T01:12:57.562Z,1.83
2023-11-09T01:15:24.171Z,1.55
2023-11-09T01:18:09.354Z,1.73
2023-11-09T01:20:36.401Z,3.92
2023-11-09T01:23:03.596Z,1.27
2023-11-09T01:25:32.839Z,1.90
2023-11-09T01:27:59.617Z,4.72
2023-11-09T01:30:30.300Z,2.72
2023-11-09T01:32:57.692Z,3.58
2023-11-09T01:35:24.461Z,3.65
2023-11-09T01:37:51.082Z,1.60
2023-11-09T01:40:19.492Z,1.50
2023-11-09T01:42:46.222Z,1.95
2023-11-09T01:45:12.902Z,1.15
2023-11-09T01:47:39.525Z,1.83
2023-11-09T01:50:06.813Z,2.65
2023-11-09T01:52:33.673Z,5.13
2023-11-09T01:55:00.427Z,4.40
2023-11-09T01:57:27.074Z,2.25
2023-11-09T01:59:54.843Z,1.40
2023-11-09T02:02:21.860Z,2.35
2023-11-09T02:04:48.674Z,3.33
2023-11-09T02:07:16.560Z,4.20
2023-11-09T02:09:43.657Z,2.60
2023-11-09T02:12:10.891Z,4.28
2023-11-09T02:14:38.648Z,2.20
2023-11-09T02:17:06.268Z,1.60
2023-11-09T02:19:33.009Z,1.40
2023-11-09T02:22:00.598Z,1.63
2023-11-09T02:24:27.831Z,3.08
2023-11-09T02:26:58.530Z,3.13
2023-11-09T02:29:26.423Z,1.85
2023-11-09T02:31:53.043Z,2.75
2023-11-09T02:34:25.881Z,2.03
2023-11-09T02:36:53.367Z,1.55
2023-11-09T02:39:20.147Z,1.38
2023-11-09T02:41:47.154Z,2.90
2023-11-09T02:44:13.851Z,2.70
2023-11-09T02:46:40.738Z,2.13
2023-11-09T02:49:07.698Z,1.20
2023-11-09T02:51:35.521Z,3.92
2023-11-09T02:54:02.522Z,3.13
2023-11-09T02:56:29.083Z,5.35
2023-11-09T02:58:55.668Z,2.08
2023-11-09T03:01:22.835Z,2.53
2023-11-09T03:03:53.111Z,1.45
2023-11-09T03:06:20.487Z,1.23
2023-11-09T03:08:47.576Z,2.45
2023-11-09T03:11:21.431Z,1.70
2023-11-09T03:13:48.246Z,3.33
2023-11-09T03:16:14.853Z,2.03
2023-11-09T03:18:45.713Z,2.83
2023-11-09T03:21:12.467Z,1.63
2023-11-09T03:23:39.121Z,1.67
2023-11-09T03:26:08.677Z,1.65
2023-11-09T03:28:35.292Z,2.50
2023-11-09T03:31:05.185Z,5.00
2023-11-09T03:33:33.020Z,2.63
2023-11-09T03:36:00.105Z,2.38
2023-11-09T03:38:26.779Z,1.35
2023-11-09T03:40:54.012Z,3.85
2023-11-09T03:43:20.729Z,2.13
2023-11-09T03:45:47.490Z,3.20
2023-11-09T03:48:16.069Z,4.63
2023-11-09T03:50:43.799Z,1.13
2023-11-09T03:53:10.397Z,1.73
2023-11-09T03:55:37.556Z,1.27
2023-11-09T03:58:04.833Z,2.05
2023-11-09T04:00:31.486Z,1.58
2023-11-09T04:02:58.230Z,1.90
2023-11-09T04:05:24.924Z,1.90
2023-11-09T04:07:51.477Z,1.10
2023-11-09T04:10:18.257Z,3.03
2023-11-09T04:12:45.168Z,1.92
2023-11-09T04:15:12.082Z,1.90
2023-11-09T04:17:38.689Z,2.33
2023-11-09T04:20:08.077Z,3.28
2023-11-09T04:22:35.406Z,1.63
2023-11-09T04:25:03.090Z,2.08
2023-11-09T04:27:29.692Z,2.42
2023-11-09T04:29:56.252Z,2.47
2023-11-09T04:32:22.881Z,2.50
2023-11-09T04:34:50.287Z,1.85
2023-11-09T04:37:21.475Z,3.90
2023-11-09T04:39:52.035Z,3.08
2023-11-09T04:42:25.329Z,4.28
2023-11-09T04:44:58.009Z,4.00
2023-11-09T04:47:26.765Z,3.92
2023-11-09T04:49:59.795Z,2.00
2023-11-09T04:52:32.949Z,2.63
2023-11-09T04:55:08.530Z,3.50
2023-11-09T04:57:53.451Z,2.35
2023-11-09T05:00:39.056Z,2.97
2023-11-09T05:03:24.557Z,2.50
2023-11-09T05:06:10.135Z,2.75
2023-11-09T05:08:37.292Z,2.50
2023-11-09T05:11:04.691Z,3.05
2023-11-09T05:13:31.457Z,3.33
2023-11-09T05:15:58.140Z,3.90
2023-11-09T05:18:24.755Z,8.43
2023-11-09T05:20:52.161Z,3.83
2023-11-09T05:23:19.710Z,6.32
2023-11-09T05:25:46.288Z,4.32
2023-11-09T05:28:13.684Z,4.00
2023-11-09T05:30:40.345Z,4.47
2023-11-09T05:33:07.174Z,6.97
2023-11-09T05:35:33.893Z,5.30
2023-11-09T05:38:00.682Z,4.53
2023-11-09T05:40:27.847Z,5.95
2023-11-09T05:42:54.563Z,4.43
2023-11-09T05:45:21.405Z,4.53
2023-11-09T05:47:47.977Z,5.22
2023-11-09T05:50:15.144Z,6.07
2023-11-09T05:52:42.408Z,5.38
2023-11-09T05:55:09.683Z,7.93
2023-11-09T05:57:38.246Z,5.00
2023-11-09T06:00:07.107Z,6.30
2023-11-09T06:02:33.795Z,5.78
2023-11-09T06:05:00.565Z,5.45
2023-11-09T06:07:28.977Z,9.40
2023-11-09T06:09:55.580Z,6.63
2023-11-09T06:12:22.390Z,5.82
2023-11-09T06:14:49.007Z,7.78
2023-11-09T06:17:15.685Z,6.40
2023-11-09T06:19:43.354Z,7.22
2023-11-09T06:22:10.297Z,7.32
2023-11-09T06:24:38.897Z,7.53
2023-11-09T06:27:08.200Z,7.22
2023-11-09T06:29:35.074Z,7.43
2023-11-09T06:32:01.667Z,9.25
2023-11-09T06:34:28.301Z,10.95
2023-11-09T06:36:55.114Z,9.80
2023-11-09T06:39:23.954Z,10.85
2023-11-09T06:41:50.969Z,10.55
2023-11-09T06:44:17.763Z,11.23
2023-11-09T06:46:45.818Z,8.48
2023-11-09T06:49:12.588Z,5.47
2023-11-09T06:51:39.298Z,7.43
2023-11-09T06:54:06.499Z,10.80
2023-11-09T06:56:35.542Z,9.52
2023-11-09T06:59:04.431Z,8.10
2023-11-09T07:01:36.265Z,7.47
2023-11-09T07:04:03.274Z,7.18
2023-11-09T07:06:29.985Z,8.40
2023-11-09T07:08:56.650Z,9.05
2023-11-09T07:11:23.205Z,15.98
2023-11-09T07:13:49.844Z,9.10
2023-11-09T07:16:17.492Z,10.25
2023-11-09T07:18:45.258Z,7.60
2023-11-09T07:21:12.670Z,9.70
2023-11-09T07:23:39.538Z,10.18
2023-11-09T07:26:06.639Z,6.85
2023-11-09T07:28:33.345Z,8.45
2023-11-09T07:31:01.987Z,7.93
2023-11-09T07:33:28.959Z,7.20
2023-11-09T07:35:56.282Z,10.27
2023-11-09T07:38:22.942Z,6.72
2023-11-09T07:40:50.574Z,11.48
2023-11-09T07:43:17.439Z,9.23
2023-11-09T07:45:44.132Z,8.05
2023-11-09T07:48:10.964Z,10.40
2023-11-09T07:50:37.675Z,8.25
2023-11-09T07:53:04.584Z,9.82
2023-11-09T07:55:31.357Z,11.05
2023-11-09T07:57:59.346Z,6.85
2023-11-09T08:00:25.928Z,11.93
2023-11-09T08:02:52.616Z,9.30
2023-11-09T08:05:20.237Z,7.32
2023-11-09T08:07:47.260Z,12.93
2023-11-09T08:10:14.075Z,10.50
2023-11-09T08:12:43.794Z,9.70
2023-11-09T08:15:15.657Z,11.15
2023-11-09T08:17:43.912Z,10.57
2023-11-09T08:20:16.180Z,8.45
2023-11-09T08:22:46.053Z,8.00
2023-11-09T08:25:14.626Z,9.32
2023-11-09T08:27:41.860Z,11.20
2023-11-09T08:30:10.597Z,9.45
2023-11-09T08:32:42.932Z,7.78
2023-11-09T08:35:14.363Z,5.80
2023-11-09T08:37:42.213Z,8.57
2023-11-09T08:40:19.999Z,6.47
2023-11-09T08:42:49.443Z,9.13
2023-11-09T08:45:18.901Z,8.65
2023-11-09T08:47:46.306Z,10.35
2023-11-09T08:50:14.297Z,11.85
2023-11-09T08:52:44.894Z,8.02
2023-11-09T08:55:13.273Z,12.30
2023-11-09T08:57:41.130Z,8.82
2023-11-09T09:00:13.426Z,7.40
2023-11-09T09:02:50.505Z,11.23
2023-11-09T09:05:22.129Z,7.63
2023-11-09T09:07:57.828Z,12.20
2023-11-09T09:10:28.467Z,7.07
2023-11-09T09:13:00.779Z,13.13
2023-11-09T09:15:29.757Z,10.65
2023-11-09T09:17:58.422Z,8.85
2023-11-09T09:20:25.358Z,11.90
2023-11-09T09:22:58.267Z,12.52
2023-11-09T09:25:26.689Z,13.63
2023-11-09T09:27:53.808Z,13.18
2023-11-09T09:30:23.019Z,15.55
2023-11-09T09:32:52.023Z,12.80
2023-11-09T09:35:26.259Z,16.65
2023-11-09T09:37:54.380Z,15.93
2023-11-09T09:40:25.108Z,12.02
2023-11-09T09:42:55.820Z,13.98
2023-11-09T09:45:25.726Z,15.90
2023-11-09T09:47:54.374Z,16.35
2023-11-09T09:50:24.177Z,10.77
2023-11-09T09:52:57.220Z,12.15
2023-11-09T09:55:28.584Z,7.07
2023-11-09T09:57:56.109Z,11.13
2023-11-09T10:00:31.707Z,8.38
2023-11-09T10:03:03.666Z,12.05
2023-11-09T10:05:35.128Z,11.38
2023-11-09T10:08:09.251Z,11.68
2023-11-09T10:10:41.138Z,11.95
2023-11-09T10:13:11.492Z,15.85
2023-11-09T10:15:38.749Z,14.00
2023-11-09T10:18:05.845Z,12.15
2023-11-09T10:20:33.377Z,13.52
2023-11-09T10:23:02.688Z,11.95
2023-11-09T10:25:32.208Z,8.63
2023-11-09T10:28:02.398Z,11.30
2023-11-09T10:30:38.973Z,10.27
2023-11-09T10:33:10.145Z,14.25
2023-11-09T10:35:40.990Z,10.13
2023-11-09T10:38:10.088Z,16.25
2023-11-09T10:40:37.883Z,11.60
2023-11-09T10:43:06.238Z,14.18
2023-11-09T10:45:37.934Z,10.98
2023-11-09T10:48:09.113Z,13.82
2023-11-09T10:50:45.701Z,13.80
2023-11-09T10:53:14.965Z,13.73
2023-11-09T10:55:44.823Z,9.65
2023-11-09T10:58:13.939Z,12.27
2023-11-09T11:00:44.002Z,17.45
2023-11-09T11:03:20.858Z,19.85
2023-11-09T11:05:48.973Z,14.48
2023-11-09T11:08:17.014Z,13.05
2023-11-09T11:10:52.654Z,14.85
2023-11-09T11:13:20.965Z,18.42
2023-11-09T11:16:06.823Z,12.05
2023-11-09T11:19:07.599Z,12.73
2023-11-09T11:21:53.773Z,14.23
2023-11-09T11:24:38.088Z,14.07
2023-11-09T11:27:19.527Z,10.25
2023-11-09T11:29:49.290Z,12.23
2023-11-09T11:32:23.519Z,13.75
2023-11-09T11:34:51.682Z,11.40
2023-11-09T11:37:30.216Z,16.63
2023-11-09T11:39:57.420Z,14.18
2023-11-09T11:42:26.708Z,16.10
2023-11-09T11:45:00.305Z,16.23
2023-11-09T11:47:31.395Z,15.43
2023-11-09T11:50:02.535Z,20.23
2023-11-09T11:52:31.996Z,16.90
2023-11-09T11:55:02.474Z,15.57
2023-11-09T11:57:35.822Z,16.00
2023-11-09T12:00:10.501Z,20.55
2023-11-09T12:02:37.687Z,13.70
2023-11-09T12:05:08.179Z,14.82
2023-11-09T12:07:38.258Z,20.13
2023-11-09T12:10:08.067Z,16.10
2023-11-09T12:12:36.198Z,21.58
2023-11-09T12:15:03.410Z,10.82
2023-11-09T12:17:30.106Z,16.25
2023-11-09T12:19:56.783Z,13.63
2023-11-09T12:22:24.618Z,12.65
2023-11-09T12:25:03.522Z,13.35
2023-11-09T12:27:32.767Z,14.73
2023-11-09T12:30:00.904Z,16.33
2023-11-09T12:32:27.852Z,15.18
2023-11-09T12:34:55.155Z,13.52
2023-11-09T12:37:30.744Z,16.75
2023-11-09T12:39:58.171Z,22.67
2023-11-09T12:42:26.752Z,14.32
2023-11-09T12:44:54.116Z,13.68
2023-11-09T12:47:26.964Z,16.55
2023-11-09T12:50:03.945Z,12.48
2023-11-09T12:52:31.090Z,17.35
2023-11-09T12:54:58.291Z,13.88
2023-11-09T12:57:25.949Z,17.85
2023-11-09T12:59:57.089Z,16.15
2023-11-09T13:02:35.864Z,14.57
2023-11-09T13:05:02.931Z,18.00
2023-11-09T13:07:29.775Z,13.95
2023-11-09T13:10:19.411Z,9.55
2023-11-09T13:12:48.296Z,15.10
2023-11-09T13:15:34.194Z,12.77
2023-11-09T13:18:09.916Z,11.35
2023-11-09T13:20:40.361Z,11.15
2023-11-09T13:23:11.488Z,14.98
2023-11-09T13:25:47.815Z,11.25
2023-11-09T13:28:17.271Z,18.83
2023-11-09T13:31:08.560Z,13.50
2023-11-09T13:33:39.093Z,10.82
2023-11-09T13:36:10.028Z,16.13
2023-11-09T13:38:56.429Z,11.93
2023-11-09T13:41:32.699Z,15.82
2023-11-09T13:44:09.043Z,14.48
2023-11-09T13:46:44.016Z,14.15
2023-11-09T13:49:34.140Z,12.80
2023-11-09T13:52:00.848Z,18.00
2023-11-09T13:54:49.391Z,16.48
2023-11-09T13:57:20.853Z,15.38
2023-11-09T13:59:56.412Z,13.45
2023-11-09T14:02:28.745Z,9.10
2023-11-09T14:04:59.912Z,10.40
2023-11-09T14:07:33.606Z,14.30
2023-11-09T14:10:01.598Z,14.70
2023-11-09T14:12:38.439Z,13.00
2023-11-09T14:15:28.093Z,11.35
2023-11-09T14:17:58.406Z,14.70
2023-11-09T14:20:35.688Z,11.98
2023-11-09T14:23:06.469Z,11.57
2023-11-09T14:25:34.728Z,11.70
2023-11-09T14:28:01.961Z,15.27
2023-11-09T14:30:33.016Z,15.85
2023-11-09T14:33:04.652Z,12.80
2023-11-09T14:35:34.014Z,14.35
2023-11-09T14:38:06.356Z,11.15
2023-11-09T14:40:37.569Z,14.52
2023-11-09T14:43:10.429Z,11.45
2023-11-09T14:45:42.402Z,11.18
2023-11-09T14:48:12.966Z,16.13
2023-11-09T14:50:40.498Z,11.95
2023-11-09T14:53:09.946Z,9.70
2023-11-09T14:55:40.291Z,15.45
2023-11-09T14:58:15.790Z,7.47
2023-11-09T15:00:48.354Z,10.00
2023-11-09T15:03:24.517Z,14.02
2023-11-09T15:06:07.450Z,12.98
2023-11-09T15:08:34.193Z,7.82
2023-11-09T15:11:01.309Z,11.10
2023-11-09T15:13:29.786Z,12.82
2023-11-09T15:16:03.672Z,15.95
2023-11-09T15:18:32.046Z,9.45
2023-11-09T15:21:01.918Z,12.63
2023-11-09T15:23:29.615Z,16.60
2023-11-09T15:25:56.296Z,17.52
2023-11-09T15:28:23.361Z,10.60
2023-11-09T15:30:51.173Z,11.82
2023-11-09T15:33:19.094Z,10.15
2023-11-09T15:35:47.213Z,12.23
2023-11-09T15:38:14.603Z,9.48
2023-11-09T15:41:15.080Z,10.40
2023-11-09T15:43:38.403Z,8.90
2023-11-09T15:46:12.522Z,9.65
2023-11-09T15:51:08.460Z,9.75
2023-11-09T15:53:35.922Z,14.63
2023-11-09T15:56:02.839Z,11.75
2023-11-09T15:58:31.718Z,9.27
2023-11-09T16:00:58.734Z,11.70
2023-11-09T16:03:25.663Z,12.75
2023-11-09T16:05:55.082Z,12.48
2023-11-09T16:08:21.782Z,10.13
2023-11-09T16:10:48.428Z,12.70
2023-11-09T16:13:15.493Z,8.55
2023-11-09T16:15:42.231Z,14.25
2023-11-09T16:18:08.960Z,8.98
2023-11-09T16:20:37.929Z,16.45
2023-11-09T16:23:08.246Z,11.13
2023-11-09T16:25:36.041Z,11.48
2023-11-09T16:28:09.843Z,10.30
2023-11-09T16:30:39.060Z,13.20
2023-11-09T16:33:09.530Z,11.30
2023-11-09T16:35:37.205Z,9.20
2023-11-09T16:38:04.194Z,11.30
2023-11-09T16:40:30.975Z,6.85
2023-11-09T16:42:57.674Z,14.18
2023-11-09T16:45:25.388Z,12.48
2023-11-09T16:47:53.960Z,9.43
2023-11-09T16:50:21.116Z,10.48
2023-11-09T16:52:48.361Z,12.60
2023-11-09T16:55:14.997Z,7.75
2023-11-09T16:57:45.966Z,16.08
2023-11-09T17:00:16.474Z,5.57
2023-11-09T17:02:43.627Z,10.13
2023-11-09T17:05:12.336Z,10.52
2023-11-09T17:07:45.623Z,7.65
2023-11-09T17:10:13.964Z,12.45
2023-11-09T17:12:41.605Z,13.18
2023-11-09T17:15:11.088Z,12.95
2023-11-09T17:17:38.907Z,12.13
2023-11-09T17:20:14.158Z,16.95
2023-11-09T17:22:44.561Z,11.50
2023-11-09T17:25:11.957Z,15.18
2023-11-09T17:27:38.683Z,13.30
2023-11-09T17:30:11.002Z,10.38
2023-11-09T17:32:39.894Z,13.55
2023-11-09T17:35:07.731Z,13.35
2023-11-09T17:37:34.510Z,16.02
2023-11-09T17:40:01.258Z,17.90
2023-11-09T17:42:27.948Z,11.82
2023-11-09T17:44:54.546Z,11.73
2023-11-09T17:47:21.306Z,12.43
2023-11-09T17:49:49.656Z,12.63
2023-11-09T17:52:16.675Z,10.23
2023-11-09T17:54:44.087Z,12.32
2023-11-09T17:57:10.747Z,11.13
2023-11-09T17:59:37.358Z,11.77
2023-11-09T18:02:05.502Z,9.45
2023-11-09T18:04:32.320Z,14.38
2023-11-09T18:06:58.910Z,18.48
2023-11-09T18:09:25.932Z,11.18
2023-11-09T18:11:56.407Z,8.20
2023-11-09T18:14:24.410Z,14.20
2023-11-09T18:16:51.292Z,13.50
2023-11-09T18:19:18.404Z,18.08
2023-11-09T18:21:47.202Z,47.22
2023-11-09T18:24:14.880Z,165.85
2023-11-09T18:26:41.586Z,60.83
2023-11-09T18:29:09.109Z,39.22
2023-11-09T18:31:36.077Z,19.85
2023-11-09T18:34:03.184Z,13.63
2023-11-09T18:36:31.521Z,13.55
2023-11-09T18:39:00.087Z,12.63
2023-11-09T18:41:28.177Z,15.82
2023-11-09T18:43:57.573Z,12.77
2023-11-09T18:46:25.202Z,9.75
2023-11-09T18:48:52.201Z,14.85
2023-11-09T18:51:19.598Z,12.98
2023-11-09T18:53:47.511Z,13.60
2023-11-09T18:56:18.265Z,8.02
2023-11-09T18:58:45.049Z,14.15
2023-11-09T19:01:12.145Z,5.38
2023-11-09T19:06:09.259Z,8.52
2023-11-09T19:08:37.171Z,8.27
2023-11-09T19:11:11.383Z,2.65
2023-11-09T19:13:40.823Z,8.95
2023-11-09T19:16:07.658Z,3.58
2023-11-09T19:18:35.269Z,4.68
2023-11-09T19:23:31.467Z,5.30
2023-11-09T19:25:59.222Z,1.75
2023-11-09T19:28:28.695Z,3.35
2023-11-09T19:30:57.492Z,3.65
2023-11-09T19:33:24.156Z,5.18
2023-11-09T19:35:50.839Z,4.53
2023-11-09T19:38:18.108Z,4.63
2023-11-09T19:40:48.664Z,2.13
2023-11-09T19:43:15.463Z,4.93
2023-11-09T19:45:44.366Z,1.65
2023-11-09T19:48:12.952Z,2.85
2023-11-09T19:50:42.742Z,1.42
2023-11-09T19:53:10.282Z,1.30
2023-11-09T19:55:37.291Z,2.67
2023-11-09T19:58:06.192Z,4.25
2023-11-09T20:00:33.992Z,3.17
2023-11-09T20:03:07.444Z,3.08
2023-11-09T20:05:35.717Z,2.65
2023-11-09T20:08:02.913Z,1.77
2023-11-09T20:10:31.388Z,3.85
2023-11-09T20:12:58.661Z,1.80
2023-11-09T20:15:28.016Z,1.95
2023-11-09T20:17:55.382Z,5.80
2023-11-09T20:20:22.567Z,2.72
2023-11-09T20:22:49.282Z,3.10
2023-11-09T20:25:16.062Z,1.38
2023-11-09T20:27:42.736Z,1.67
2023-11-09T20:30:14.100Z,3.47
2023-11-09T20:32:42.932Z,3.22
2023-11-09T20:35:10.944Z,4.95
2023-11-09T20:37:42.280Z,2.53
2023-11-09T20:40:10.194Z,2.58
2023-11-09T20:42:40.317Z,4.90
2023-11-09T20:45:09.696Z,4.65
2023-11-09T20:47:40.826Z,3.60
2023-11-09T20:50:13.883Z,1.90
2023-11-09T20:52:41.472Z,2.13
2023-11-09T20:55:13.794Z,4.35
2023-11-09T20:57:40.654Z,2.45
2023-11-09T21:00:10.388Z,2.55
2023-11-09T21:02:37.577Z,4.45
2023-11-09T21:05:06.461Z,2.08
2023-11-09T21:07:33.386Z,6.80
2023-11-09T21:10:00.369Z,1.20
2023-11-09T21:12:27.653Z,1.90
2023-11-09T21:14:55.379Z,2.05
2023-11-09T21:17:21.966Z,1.63
2023-11-09T21:19:48.651Z,2.00
2023-11-09T21:22:16.389Z,1.80
2023-11-09T21:24:43.244Z,6.13
2023-11-09T21:27:13.438Z,1.23
2023-11-09T21:29:43.550Z,1.95
2023-11-09T21:32:10.127Z,3.38
2023-11-09T21:34:40.379Z,1.77
2023-11-09T21:37:07.545Z,3.20
2023-11-09T21:39:34.743Z,2.05
2023-11-09T21:42:01.386Z,5.88
2023-11-09T21:44:30.659Z,2.80
2023-11-09T21:46:57.314Z,2.35
2023-11-09T21:49:23.980Z,2.40
2023-11-09T21:51:52.866Z,2.75
2023-11-09T21:54:20.256Z,2.15
2023-11-09T21:56:46.952Z,3.92
2023-11-09T21:59:13.661Z,5.55
2023-11-09T22:01:40.393Z,4.72
2023-11-09T22:04:07.656Z,3.42
2023-11-09T22:06:34.736Z,6.05
2023-11-09T22:09:02.085Z,4.57
2023-11-09T22:11:29.149Z,5.72
2023-11-09T22:13:56.035Z,5.45
2023-11-09T22:16:23.604Z,6.63
2023-11-09T22:18:50.241Z,5.30
2023-11-09T22:21:17.617Z,8.93
2023-11-09T22:23:44.277Z,7.65
2023-11-09T22:26:13.054Z,9.38
2023-11-09T22:28:39.639Z,6.10
2023-11-09T22:31:06.276Z,7.07
2023-11-09T22:33:33.015Z,7.13
2023-11-09T22:36:00.602Z,6.68
2023-11-09T22:38:27.435Z,9.05
2023-11-09T22:40:54.084Z,10.77
2023-11-09T22:43:21.596Z,10.77
2023-11-09T22:45:51.017Z,10.00
2023-11-09T22:48:20.931Z,10.65
2023-11-09T22:50:50.717Z,13.75
2023-11-09T22:53:17.709Z,12.98
2023-11-09T22:55:44.386Z,8.98
2023-11-09T22:58:11.224Z,10.05
2023-11-09T23:00:43.993Z,11.23
2023-11-09T23:03:10.924Z,9.10
2023-11-09T23:05:37.797Z,10.88
2023-11-09T23:08:05.273Z,13.15
2023-11-09T23:10:33.075Z,13.82
2023-11-09T23:13:00.176Z,14.85
2023-11-09T23:15:26.957Z,11.27
2023-11-09T23:17:53.737Z,11.35
2023-11-09T23:20:20.383Z,12.65
2023-11-09T23:22:47.179Z,13.23
2023-11-09T23:25:13.967Z,12.43
2023-11-09T23:27:40.735Z,11.15
2023-11-09T23:30:08.068Z,14.20
2023-11-09T23:32:34.662Z,11.75
2023-11-09T23:35:02.310Z,15.50
2023-11-09T23:37:28.901Z,10.02
2023-11-09T23:39:55.724Z,11.50
2023-11-09T23:42:22.372Z,14.25
2023-11-09T23:44:49.096Z,10.93
2023-11-09T23:47:15.690Z,14.90
2023-11-09T23:49:42.257Z,13.43
2023-11-09T23:52:09.349Z,11.82
2023-11-09T23:54:36.081Z,10.65
2023-11-09T23:57:02.678Z,10.43
2023-11-09T23:59:29.324Z,12.15
